sensor_id;sensor_type;location;lat;lon;timestamp;pressure;altitude;pressure_sealevel;temperature;humidity
44839;BME280;30576;42.098;24.876;2022-11-20T00:01:05;99166.00;;;13.16;97.14
44839;BME280;30576;42.098;24.876;2022-11-20T00:03:30;99166.72;;;12.95;99.14
44839;BME280;30576;42.098;24.876;2022-11-20T00:05:59;99166.53;;;13.26;98.63
44839;BME280;30576;42.098;24.876;2022-11-20T00:08:24;99169.78;;;13.61;96.61
44839;BME280;30576;42.098;24.876;2022-11-20T00:10:50;99179.28;;;13.41;94.97
44839;BME280;30576;42.098;24.876;2022-11-20T00:13:15;99162.47;;;13.16;97.06
44839;BME280;30576;42.098;24.876;2022-11-20T00:15:40;99155.72;;;13.32;97.50
44839;BME280;30576;42.098;24.876;2022-11-20T00:18:06;99170.75;;;13.58;94.98
44839;BME280;30576;42.098;24.876;2022-11-20T00:20:31;99174.84;;;13.42;96.19
44839;BME280;30576;42.098;24.876;2022-11-20T00:22:56;99164.25;;;13.42;96.11
44839;BME280;30576;42.098;24.876;2022-11-20T00:25:21;99154.94;;;13.55;95.70
44839;BME280;30576;42.098;24.876;2022-11-20T00:27:47;99160.78;;;13.65;93.50
44839;BME280;30576;42.098;24.876;2022-11-20T00:33:15;99139.22;;;13.51;92.50
44839;BME280;30576;42.098;24.876;2022-11-20T00:35:40;99144.69;;;13.46;92.28
44839;BME280;30576;42.098;24.876;2022-11-20T00:38:05;99169.19;;;13.26;94.34
44839;BME280;30576;42.098;24.876;2022-11-20T00:40:31;99156.75;;;13.28;96.07
44839;BME280;30576;42.098;24.876;2022-11-20T00:42:56;99146.97;;;13.30;95.50
44839;BME280;30576;42.098;24.876;2022-11-20T00:45:21;99150.38;;;13.59;95.00
44839;BME280;30576;42.098;24.876;2022-11-20T00:47:47;99153.88;;;13.61;93.72
44839;BME280;30576;42.098;24.876;2022-11-20T00:50:12;99146.38;;;13.49;96.28
44839;BME280;30576;42.098;24.876;2022-11-20T00:52:37;99147.34;;;13.70;95.44
44839;BME280;30576;42.098;24.876;2022-11-20T00:55:02;99166.41;;;13.56;97.08
44839;BME280;30576;42.098;24.876;2022-11-20T00:57:28;99168.06;;;13.84;93.93
44839;BME280;30576;42.098;24.876;2022-11-20T00:59:53;99158.94;;;13.67;93.61
44839;BME280;30576;42.098;24.876;2022-11-20T01:02:18;99157.31;;;13.63;94.79
44839;BME280;30576;42.098;24.876;2022-11-20T01:07:47;99163.59;;;13.60;96.14
44839;BME280;30576;42.098;24.876;2022-11-20T01:10:12;99182.41;;;13.78;94.86
44839;BME280;30576;42.098;24.876;2022-11-20T01:12:37;99174.47;;;13.78;92.90
44839;BME280;30576;42.098;24.876;2022-11-20T01:15:02;99158.78;;;13.20;95.05
44839;BME280;30576;42.098;24.876;2022-11-20T01:17:28;99157.56;;;13.30;96.28
44839;BME280;30576;42.098;24.876;2022-11-20T01:19:53;99149.69;;;13.02;98.86
44839;BME280;30576;42.098;24.876;2022-11-20T01:22:18;99156.25;;;13.43;97.42
44839;BME280;30576;42.098;24.876;2022-11-20T01:24:44;99163.47;;;13.64;96.21
44839;BME280;30576;42.098;24.876;2022-11-20T01:27:09;99158.41;;;13.83;95.05
44839;BME280;30576;42.098;24.876;2022-11-20T01:29:34;99149.47;;;13.60;94.82
44839;BME280;30576;42.098;24.876;2022-11-20T01:32:00;99137.06;;;13.86;93.80
44839;BME280;30576;42.098;24.876;2022-11-20T01:34:25;99132.16;;;13.99;93.48
44839;BME280;30576;42.098;24.876;2022-11-20T01:36:51;99139.25;;;13.98;92.52
44839;BME280;30576;42.098;24.876;2022-11-20T01:39:18;99138.38;;;13.97;92.48
44839;BME280;30576;42.098;24.876;2022-11-20T01:41:44;99124.22;;;13.75;92.23
44839;BME280;30576;42.098;24.876;2022-11-20T01:52:39;99105.25;;;13.86;91.04
44839;BME280;30576;42.098;24.876;2022-11-20T01:55:07;99112.56;;;13.79;90.25
44839;BME280;30576;42.098;24.876;2022-11-20T01:57:34;99121.38;;;13.79;90.79
44839;BME280;30576;42.098;24.876;2022-11-20T02:00:07;99100.41;;;13.73;90.71
44839;BME280;30576;42.098;24.876;2022-11-20T02:02:33;99114.81;;;13.66;89.92
44839;BME280;30576;42.098;24.876;2022-11-20T02:05:01;99113.72;;;13.47;91.68
44839;BME280;30576;42.098;24.876;2022-11-20T02:10:30;99105.31;;;13.35;92.47
44839;BME280;30576;42.098;24.876;2022-11-20T02:12:57;99104.34;;;13.38;92.86
44839;BME280;30576;42.098;24.876;2022-11-20T02:15:41;99081.16;;;13.45;92.08
44839;BME280;30576;42.098;24.876;2022-11-20T02:18:06;99091.84;;;13.41;92.30
44839;BME280;30576;42.098;24.876;2022-11-20T02:20:33;99106.75;;;13.19;93.78
44839;BME280;30576;42.098;24.876;2022-11-20T02:23:02;99101.16;;;13.26;92.82
44839;BME280;30576;42.098;24.876;2022-11-20T02:25:29;99101.53;;;13.42;91.74
44839;BME280;30576;42.098;24.876;2022-11-20T02:27:57;99084.44;;;13.01;94.82
44839;BME280;30576;42.098;24.876;2022-11-20T02:33:25;99068.47;;;13.28;94.73
44839;BME280;30576;42.098;24.876;2022-11-20T02:35:50;99070.94;;;13.34;94.85
44839;BME280;30576;42.098;24.876;2022-11-20T02:38:16;99075.84;;;13.45;93.25
44839;BME280;30576;42.098;24.876;2022-11-20T02:40:41;99074.09;;;13.18;95.72
44839;BME280;30576;42.098;24.876;2022-11-20T02:46:09;99092.91;;;13.11;97.68
44839;BME280;30576;42.098;24.876;2022-11-20T02:51:37;99067.03;;;13.44;96.04
44839;BME280;30576;42.098;24.876;2022-11-20T02:54:03;99069.81;;;13.65;94.35
44839;BME280;30576;42.098;24.876;2022-11-20T02:56:28;99080.69;;;13.57;93.75
44839;BME280;30576;42.098;24.876;2022-11-20T02:58:53;99079.38;;;13.69;93.81
44839;BME280;30576;42.098;24.876;2022-11-20T03:01:19;99070.59;;;13.67;94.59
44839;BME280;30576;42.098;24.876;2022-11-20T03:03:44;99062.66;;;13.67;94.24
44839;BME280;30576;42.098;24.876;2022-11-20T03:06:09;99056.44;;;13.68;94.08
44839;BME280;30576;42.098;24.876;2022-11-20T03:08:35;99067.50;;;13.55;93.96
44839;BME280;30576;42.098;24.876;2022-11-20T03:11:06;99056.50;;;13.42;96.05
44839;BME280;30576;42.098;24.876;2022-11-20T03:13:32;99053.16;;;13.85;93.97
44839;BME280;30576;42.098;24.876;2022-11-20T03:19:00;99058.97;;;13.71;95.39
44839;BME280;30576;42.098;24.876;2022-11-20T03:21:25;99035.69;;;13.79;95.35
44839;BME280;30576;42.098;24.876;2022-11-20T03:23:50;99045.56;;;13.75;95.63
44839;BME280;30576;42.098;24.876;2022-11-20T03:26:19;99073.03;;;13.96;93.81
44839;BME280;30576;42.098;24.876;2022-11-20T03:31:47;99055.03;;;13.34;98.08
44839;BME280;30576;42.098;24.876;2022-11-20T03:34:12;99060.88;;;13.18;99.95
44839;BME280;30576;42.098;24.876;2022-11-20T03:36:39;99062.19;;;13.55;98.89
44839;BME280;30576;42.098;24.876;2022-11-20T03:39:04;99058.50;;;13.83;97.99
44839;BME280;30576;42.098;24.876;2022-11-20T03:41:30;99071.47;;;13.91;95.89
44839;BME280;30576;42.098;24.876;2022-11-20T03:43:57;99060.69;;;13.95;94.52
44839;BME280;30576;42.098;24.876;2022-11-20T03:46:23;99052.31;;;14.06;93.26
44839;BME280;30576;42.098;24.876;2022-11-20T03:48:48;99052.91;;;14.13;92.78
44839;BME280;30576;42.098;24.876;2022-11-20T03:51:18;99054.22;;;14.25;91.11
44839;BME280;30576;42.098;24.876;2022-11-20T03:53:44;99056.41;;;14.15;92.09
44839;BME280;30576;42.098;24.876;2022-11-20T03:56:10;99058.41;;;14.08;92.05
44839;BME280;30576;42.098;24.876;2022-11-20T03:58:37;99055.63;;;13.89;92.21
44839;BME280;30576;42.098;24.876;2022-11-20T04:01:11;99051.53;;;13.81;93.33
44839;BME280;30576;42.098;24.876;2022-11-20T04:03:37;99043.41;;;13.85;92.24
44839;BME280;30576;42.098;24.876;2022-11-20T04:06:06;99046.88;;;13.87;92.66
44839;BME280;30576;42.098;24.876;2022-11-20T04:08:32;99052.69;;;13.50;94.25
44839;BME280;30576;42.098;24.876;2022-11-20T04:13:53;99065.00;;;13.74;93.43
44839;BME280;30576;42.098;24.876;2022-11-20T04:16:19;99062.41;;;13.73;95.41
44839;BME280;30576;42.098;24.876;2022-11-20T04:21:47;99068.03;;;14.11;93.18
44839;BME280;30576;42.098;24.876;2022-11-20T04:24:12;99060.50;;;14.00;92.20
44839;BME280;30576;42.098;24.876;2022-11-20T04:26:38;99062.44;;;13.96;92.25
44839;BME280;30576;42.098;24.876;2022-11-20T04:32:06;99055.94;;;14.04;91.47
44839;BME280;30576;42.098;24.876;2022-11-20T04:34:31;99062.19;;;14.03;90.81
44839;BME280;30576;42.098;24.876;2022-11-20T04:36:56;99060.47;;;13.78;90.10
44839;BME280;30576;42.098;24.876;2022-11-20T04:39:22;99067.03;;;13.68;90.96
44839;BME280;30576;42.098;24.876;2022-11-20T04:41:47;99064.78;;;13.57;91.12
44839;BME280;30576;42.098;24.876;2022-11-20T04:44:12;99058.47;;;13.61;90.85
44839;BME280;30576;42.098;24.876;2022-11-20T04:46:39;99067.59;;;13.76;90.26
44839;BME280;30576;42.098;24.876;2022-11-20T04:49:05;99063.31;;;13.73;89.76
44839;BME280;30576;42.098;24.876;2022-11-20T04:51:31;99075.09;;;13.65;89.95
44839;BME280;30576;42.098;24.876;2022-11-20T04:56:59;99090.78;;;13.20;91.38
44839;BME280;30576;42.098;24.876;2022-11-20T04:59:24;99068.81;;;13.18;93.92
44839;BME280;30576;42.098;24.876;2022-11-20T05:01:49;99067.16;;;13.41;92.46
44839;BME280;30576;42.098;24.876;2022-11-20T05:04:14;99076.88;;;13.40;92.06
44839;BME280;30576;42.098;24.876;2022-11-20T05:09:42;99077.22;;;13.30;90.35
44839;BME280;30576;42.098;24.876;2022-11-20T05:12:08;99074.47;;;13.33;90.18
44839;BME280;30576;42.098;24.876;2022-11-20T05:14:33;99077.91;;;13.36;89.76
44839;BME280;30576;42.098;24.876;2022-11-20T05:16:59;99085.06;;;13.07;90.43
44839;BME280;30576;42.098;24.876;2022-11-20T05:19:24;99096.75;;;13.27;90.69
44839;BME280;30576;42.098;24.876;2022-11-20T05:21:50;99102.44;;;13.16;90.73
44839;BME280;30576;42.098;24.876;2022-11-20T05:24:15;99092.22;;;13.05;90.95
44839;BME280;30576;42.098;24.876;2022-11-20T05:26:40;99098.03;;;13.15;89.15
44839;BME280;30576;42.098;24.876;2022-11-20T05:29:06;99087.34;;;12.93;89.88
44839;BME280;30576;42.098;24.876;2022-11-20T05:31:31;99076.28;;;13.07;91.20
44839;BME280;30576;42.098;24.876;2022-11-20T05:33:56;99067.44;;;13.06;91.51
44839;BME280;30576;42.098;24.876;2022-11-20T05:36:22;99089.88;;;12.96;91.06
44839;BME280;30576;42.098;24.876;2022-11-20T05:38:47;99084.06;;;12.85;92.86
44839;BME280;30576;42.098;24.876;2022-11-20T05:41:14;99076.59;;;13.23;93.85
44839;BME280;30576;42.098;24.876;2022-11-20T05:43:40;99080.13;;;13.49;92.60
44839;BME280;30576;42.098;24.876;2022-11-20T05:46:06;99084.38;;;13.53;93.00
44839;BME280;30576;42.098;24.876;2022-11-20T05:51:34;99089.03;;;13.21;93.85
44839;BME280;30576;42.098;24.876;2022-11-20T05:53:59;99094.59;;;13.13;93.49
44839;BME280;30576;42.098;24.876;2022-11-20T05:56:25;99104.69;;;13.02;94.62
44839;BME280;30576;42.098;24.876;2022-11-20T05:58:50;99092.44;;;12.99;96.00
44839;BME280;30576;42.098;24.876;2022-11-20T06:01:17;99088.34;;;13.41;93.93
44839;BME280;30576;42.098;24.876;2022-11-20T06:03:43;99104.78;;;13.51;93.10
44839;BME280;30576;42.098;24.876;2022-11-20T06:06:11;99109.72;;;13.60;92.41
44839;BME280;30576;42.098;24.876;2022-11-20T06:11:39;99121.63;;;13.48;93.17
44839;BME280;30576;42.098;24.876;2022-11-20T06:14:04;99115.44;;;13.73;92.11
44839;BME280;30576;42.098;24.876;2022-11-20T06:16:30;99116.72;;;13.63;91.97
44839;BME280;30576;42.098;24.876;2022-11-20T06:18:56;99114.22;;;13.58;92.41
44839;BME280;30576;42.098;24.876;2022-11-20T06:24:24;99109.28;;;13.22;93.13
44839;BME280;30576;42.098;24.876;2022-11-20T06:26:50;99105.84;;;13.20;92.42
44839;BME280;30576;42.098;24.876;2022-11-20T06:29:15;99125.91;;;13.00;93.05
44839;BME280;30576;42.098;24.876;2022-11-20T06:37:48;99124.03;;;13.79;96.61
44839;BME280;30576;42.098;24.876;2022-11-20T06:43:16;99113.22;;;13.60;95.82
44839;BME280;30576;42.098;24.876;2022-11-20T06:45:41;99123.16;;;13.79;95.82
44839;BME280;30576;42.098;24.876;2022-11-20T06:48:07;99127.72;;;13.99;96.30
44839;BME280;30576;42.098;24.876;2022-11-20T06:50:32;99142.44;;;14.30;95.24
44839;BME280;30576;42.098;24.876;2022-11-20T06:53:00;99145.56;;;14.41;93.29
44839;BME280;30576;42.098;24.876;2022-11-20T06:55:25;99130.00;;;14.32;93.21
44839;BME280;30576;42.098;24.876;2022-11-20T06:57:50;99136.66;;;14.42;93.10
44839;BME280;30576;42.098;24.876;2022-11-20T07:00:16;99139.94;;;14.49;93.20
44839;BME280;30576;42.098;24.876;2022-11-20T07:02:41;99139.44;;;14.63;91.40
44839;BME280;30576;42.098;24.876;2022-11-20T07:08:09;99136.78;;;14.39;93.81
44839;BME280;30576;42.098;24.876;2022-11-20T07:10:35;99144.50;;;14.45;93.77
44839;BME280;30576;42.098;24.876;2022-11-20T07:13:00;99143.75;;;14.42;92.93
44839;BME280;30576;42.098;24.876;2022-11-20T07:15:25;99148.59;;;14.54;93.31
44839;BME280;30576;42.098;24.876;2022-11-20T07:17:51;99153.00;;;14.77;91.61
44839;BME280;30576;42.098;24.876;2022-11-20T07:20:16;99138.22;;;14.70;91.78
44839;BME280;30576;42.098;24.876;2022-11-20T07:22:42;99140.69;;;14.75;91.05
44839;BME280;30576;42.098;24.876;2022-11-20T07:25:08;99142.38;;;14.31;92.93
44839;BME280;30576;42.098;24.876;2022-11-20T07:27:33;99139.44;;;14.39;93.47
44839;BME280;30576;42.098;24.876;2022-11-20T07:29:59;99139.53;;;14.60;92.87
44839;BME280;30576;42.098;24.876;2022-11-20T07:35:27;99148.34;;;14.82;91.40
44839;BME280;30576;42.098;24.876;2022-11-20T07:37:52;99159.28;;;14.75;91.62
44839;BME280;30576;42.098;24.876;2022-11-20T07:40:17;99150.59;;;14.71;92.56
44839;BME280;30576;42.098;24.876;2022-11-20T07:42:52;99151.25;;;14.76;92.59
44839;BME280;30576;42.098;24.876;2022-11-20T07:45:19;99148.22;;;15.08;91.45
44839;BME280;30576;42.098;24.876;2022-11-20T07:47:44;99162.28;;;15.10;91.55
44839;BME280;30576;42.098;24.876;2022-11-20T07:50:10;99151.28;;;15.19;90.50
44839;BME280;30576;42.098;24.876;2022-11-20T07:52:36;99159.25;;;15.19;90.39
44839;BME280;30576;42.098;24.876;2022-11-20T07:55:01;99161.56;;;15.27;89.62
44839;BME280;30576;42.098;24.876;2022-11-20T07:57:27;99147.56;;;15.44;88.97
44839;BME280;30576;42.098;24.876;2022-11-20T07:59:52;99145.09;;;15.39;89.09
44839;BME280;30576;42.098;24.876;2022-11-20T08:02:17;99157.50;;;15.18;90.10
44839;BME280;30576;42.098;24.876;2022-11-20T08:04:42;99154.91;;;14.96;90.62
44839;BME280;30576;42.098;24.876;2022-11-20T08:07:08;99149.59;;;15.16;90.51
44839;BME280;30576;42.098;24.876;2022-11-20T08:09:33;99146.84;;;15.40;89.12
44839;BME280;30576;42.098;24.876;2022-11-20T08:11:58;99147.63;;;15.42;89.70
44839;BME280;30576;42.098;24.876;2022-11-20T08:14:42;99161.44;;;15.30;89.76
44839;BME280;30576;42.098;24.876;2022-11-20T08:17:08;99165.44;;;15.61;88.02
44839;BME280;30576;42.098;24.876;2022-11-20T08:19:33;99158.41;;;15.80;86.13
44839;BME280;30576;42.098;24.876;2022-11-20T08:21:58;99148.63;;;15.81;86.27
44839;BME280;30576;42.098;24.876;2022-11-20T08:24:23;99143.16;;;16.03;85.12
44839;BME280;30576;42.098;24.876;2022-11-20T08:26:51;99139.59;;;16.04;85.61
44839;BME280;30576;42.098;24.876;2022-11-20T08:29:17;99149.91;;;15.91;87.85
44839;BME280;30576;42.098;24.876;2022-11-20T08:31:42;99143.03;;;16.06;87.54
44839;BME280;30576;42.098;24.876;2022-11-20T08:34:07;99142.75;;;16.12;86.84
44839;BME280;30576;42.098;24.876;2022-11-20T08:36:33;99127.66;;;16.32;87.20
44839;BME280;30576;42.098;24.876;2022-11-20T08:38:59;99117.84;;;16.32;87.28
44839;BME280;30576;42.098;24.876;2022-11-20T08:41:24;99132.41;;;16.61;86.65
44839;BME280;30576;42.098;24.876;2022-11-20T08:43:54;99129.34;;;16.88;88.19
44839;BME280;30576;42.098;24.876;2022-11-20T08:46:19;99117.47;;;17.30;86.02
44839;BME280;30576;42.098;24.876;2022-11-20T08:48:45;99122.16;;;17.76;82.72
44839;BME280;30576;42.098;24.876;2022-11-20T08:51:11;99110.38;;;17.98;80.16
44839;BME280;30576;42.098;24.876;2022-11-20T08:56:45;99121.75;;;18.65;75.78
44839;BME280;30576;42.098;24.876;2022-11-20T08:59:11;99118.38;;;18.77;76.51
44839;BME280;30576;42.098;24.876;2022-11-20T09:01:36;99118.69;;;19.03;76.08
44839;BME280;30576;42.098;24.876;2022-11-20T09:04:01;99120.22;;;19.07;73.19
44839;BME280;30576;42.098;24.876;2022-11-20T09:06:28;99127.94;;;19.42;71.80
44839;BME280;30576;42.098;24.876;2022-11-20T09:08:54;99117.16;;;19.29;71.77
44839;BME280;30576;42.098;24.876;2022-11-20T09:11:19;99108.94;;;19.61;69.47
44839;BME280;30576;42.098;24.876;2022-11-20T09:13:44;99104.94;;;19.68;70.75
44839;BME280;30576;42.098;24.876;2022-11-20T09:16:10;99101.81;;;19.91;70.59
44839;BME280;30576;42.098;24.876;2022-11-20T09:18:35;99089.53;;;20.30;69.10
44839;BME280;30576;42.098;24.876;2022-11-20T09:21:03;99089.84;;;20.11;69.24
44839;BME280;30576;42.098;24.876;2022-11-20T09:23:33;99091.19;;;20.18;69.10
44839;BME280;30576;42.098;24.876;2022-11-20T09:26:05;99069.31;;;20.38;68.07
44839;BME280;30576;42.098;24.876;2022-11-20T09:28:31;99074.78;;;20.64;66.74
44839;BME280;30576;42.098;24.876;2022-11-20T09:30:57;99058.53;;;20.67;66.23
44839;BME280;30576;42.098;24.876;2022-11-20T09:33:23;99063.97;;;20.93;65.13
44839;BME280;30576;42.098;24.876;2022-11-20T09:35:48;99050.47;;;20.95;64.24
44839;BME280;30576;42.098;24.876;2022-11-20T09:38:13;99053.56;;;21.27;63.53
44839;BME280;30576;42.098;24.876;2022-11-20T09:40:49;99060.06;;;21.63;63.87
44839;BME280;30576;42.098;24.876;2022-11-20T09:50:56;99046.81;;;22.35;60.06
44839;BME280;30576;42.098;24.876;2022-11-20T09:55:48;99042.53;;;22.57;60.18
44839;BME280;30576;42.098;24.876;2022-11-20T09:58:31;99034.47;;;22.93;62.02
44839;BME280;30576;42.098;24.876;2022-11-20T10:01:01;99035.19;;;22.95;57.61
44839;BME280;30576;42.098;24.876;2022-11-20T10:22:02;99019.28;;;24.18;54.26
44839;BME280;30576;42.098;24.876;2022-11-20T10:24:39;99020.16;;;24.07;53.30
44839;BME280;30576;42.098;24.876;2022-11-20T10:32:42;98995.56;;;23.77;55.28
44839;BME280;30576;42.098;24.876;2022-11-20T10:35:17;98985.91;;;23.86;54.13
44839;BME280;30576;42.098;24.876;2022-11-20T10:37:44;98984.16;;;23.74;53.61
44839;BME280;30576;42.098;24.876;2022-11-20T10:48:24;98970.50;;;23.88;54.05
44839;BME280;30576;42.098;24.876;2022-11-20T10:51:03;98959.72;;;23.88;54.02
44839;BME280;30576;42.098;24.876;2022-11-20T10:56:28;98963.63;;;23.84;48.22
44839;BME280;30576;42.098;24.876;2022-11-20T11:01:21;98960.31;;;23.69;49.23
44839;BME280;30576;42.098;24.876;2022-11-20T11:03:48;98949.56;;;23.58;48.63
44839;BME280;30576;42.098;24.876;2022-11-20T11:08:58;98953.38;;;23.67;46.00
44839;BME280;30576;42.098;24.876;2022-11-20T11:11:27;98947.59;;;23.71;46.39
44839;BME280;30576;42.098;24.876;2022-11-20T11:14:03;98939.31;;;23.52;46.68
44839;BME280;30576;42.098;24.876;2022-11-20T11:16:28;98923.91;;;23.31;47.05
44839;BME280;30576;42.098;24.876;2022-11-20T11:19:04;98917.53;;;23.21;46.32
44839;BME280;30576;42.098;24.876;2022-11-20T11:21:29;98918.63;;;23.41;45.21
44839;BME280;30576;42.098;24.876;2022-11-20T11:24:02;98923.13;;;23.74;45.44
44839;BME280;30576;42.098;24.876;2022-11-20T11:26:28;98920.31;;;23.87;45.79
44839;BME280;30576;42.098;24.876;2022-11-20T11:28:57;98925.19;;;23.82;46.51
44839;BME280;30576;42.098;24.876;2022-11-20T11:34:25;98917.59;;;23.87;46.79
44839;BME280;30576;42.098;24.876;2022-11-20T11:36:58;98912.06;;;24.00;46.13
44839;BME280;30576;42.098;24.876;2022-11-20T11:39:24;98923.47;;;23.92;46.65
44839;BME280;30576;42.098;24.876;2022-11-20T11:41:51;98909.28;;;23.90;46.90
44839;BME280;30576;42.098;24.876;2022-11-20T11:47:04;98911.66;;;23.50;48.25
44839;BME280;30576;42.098;24.876;2022-11-20T11:49:31;98924.38;;;23.59;50.58
44839;BME280;30576;42.098;24.876;2022-11-20T11:51:59;98911.53;;;23.40;53.12
44839;BME280;30576;42.098;24.876;2022-11-20T11:54:39;98901.38;;;23.55;47.63
44839;BME280;30576;42.098;24.876;2022-11-20T11:57:17;98904.81;;;23.46;49.23
44839;BME280;30576;42.098;24.876;2022-11-20T12:03:00;98910.47;;;23.31;48.84
44839;BME280;30576;42.098;24.876;2022-11-20T12:08:38;98896.94;;;22.75;53.85
44839;BME280;30576;42.098;24.876;2022-11-20T12:11:11;98910.91;;;22.44;56.74
44839;BME280;30576;42.098;24.876;2022-11-20T12:13:48;98909.22;;;22.43;58.18
44839;BME280;30576;42.098;24.876;2022-11-20T12:16:18;98902.38;;;22.50;57.57
44839;BME280;30576;42.098;24.876;2022-11-20T12:18:44;98893.59;;;22.48;56.76
44839;BME280;30576;42.098;24.876;2022-11-20T12:29:23;98900.03;;;22.34;56.92
44839;BME280;30576;42.098;24.876;2022-11-20T12:34:37;98905.84;;;22.04;58.87
44839;BME280;30576;42.098;24.876;2022-11-20T12:45:42;98884.94;;;22.67;55.26
44839;BME280;30576;42.098;24.876;2022-11-20T12:53:05;98888.75;;;22.65;54.22
44839;BME280;30576;42.098;24.876;2022-11-20T12:58:27;98888.34;;;22.47;56.30
44839;BME280;30576;42.098;24.876;2022-11-20T13:01:09;98890.59;;;22.05;57.52
44839;BME280;30576;42.098;24.876;2022-11-20T13:07:05;98884.28;;;22.41;53.13
44839;BME280;30576;42.098;24.876;2022-11-20T13:09:30;98880.53;;;22.55;51.61
44839;BME280;30576;42.098;24.876;2022-11-20T13:20:04;98901.47;;;22.74;48.46
44839;BME280;30576;42.098;24.876;2022-11-20T13:22:44;98908.31;;;22.78;48.92
44839;BME280;30576;42.098;24.876;2022-11-20T13:33:40;98914.13;;;22.49;52.35
44839;BME280;30576;42.098;24.876;2022-11-20T13:36:25;98912.53;;;22.58;53.39
44839;BME280;30576;42.098;24.876;2022-11-20T13:38:51;98918.66;;;22.00;56.24
44839;BME280;30576;42.098;24.876;2022-11-20T13:46:35;98931.69;;;21.57;52.21
44839;BME280;30576;42.098;24.876;2022-11-20T13:49:05;98938.63;;;21.96;51.47
44839;BME280;30576;42.098;24.876;2022-11-20T13:54:48;98936.38;;;22.03;46.05
44839;BME280;30576;42.098;24.876;2022-11-20T14:02:35;98936.66;;;22.71;45.25
44839;BME280;30576;42.098;24.876;2022-11-20T14:05:01;98930.41;;;22.70;47.87
44839;BME280;30576;42.098;24.876;2022-11-20T14:07:36;98943.50;;;22.40;49.25
44839;BME280;30576;42.098;24.876;2022-11-20T14:10:02;98948.06;;;22.02;50.90
44839;BME280;30576;42.098;24.876;2022-11-20T14:12:31;98954.13;;;21.93;51.27
44839;BME280;30576;42.098;24.876;2022-11-20T14:14:57;98971.91;;;21.70;52.00
44839;BME280;30576;42.098;24.876;2022-11-20T14:19:48;98963.59;;;20.84;51.38
44839;BME280;30576;42.098;24.876;2022-11-20T14:22:21;98960.00;;;20.58;50.98
44839;BME280;30576;42.098;24.876;2022-11-20T14:24:48;98961.19;;;19.99;52.78
44839;BME280;30576;42.098;24.876;2022-11-20T14:27:18;98966.28;;;19.75;53.85
44839;BME280;30576;42.098;24.876;2022-11-20T14:29:44;98967.47;;;19.57;53.27
44839;BME280;30576;42.098;24.876;2022-11-20T14:32:10;98974.75;;;19.55;54.10
44839;BME280;30576;42.098;24.876;2022-11-20T14:34:37;98977.25;;;19.43;54.63
44839;BME280;30576;42.098;24.876;2022-11-20T14:37:04;98982.75;;;19.26;55.83
44839;BME280;30576;42.098;24.876;2022-11-20T14:42:33;98976.56;;;19.40;56.09
44839;BME280;30576;42.098;24.876;2022-11-20T14:44:58;98983.63;;;19.41;56.24
44839;BME280;30576;42.098;24.876;2022-11-20T14:47:25;98986.84;;;19.75;55.50
44839;BME280;30576;42.098;24.876;2022-11-20T14:52:58;98998.59;;;19.72;55.50
44839;BME280;30576;42.098;24.876;2022-11-20T14:55:34;98991.44;;;19.87;54.56
44839;BME280;30576;42.098;24.876;2022-11-20T14:58:01;98991.59;;;19.98;54.68
44839;BME280;30576;42.098;24.876;2022-11-20T15:00:27;98991.84;;;19.81;54.96
44839;BME280;30576;42.098;24.876;2022-11-20T15:02:53;98990.56;;;19.72;55.22
44839;BME280;30576;42.098;24.876;2022-11-20T15:05:20;98976.94;;;19.19;57.15
44839;BME280;30576;42.098;24.876;2022-11-20T15:07:47;98970.81;;;19.03;57.43
44839;BME280;30576;42.098;24.876;2022-11-20T15:10:19;98964.44;;;19.20;57.71
44839;BME280;30576;42.098;24.876;2022-11-20T15:15:50;98954.78;;;19.46;56.27
44839;BME280;30576;42.098;24.876;2022-11-20T15:18:16;98960.72;;;19.51;56.68
44839;BME280;30576;42.098;24.876;2022-11-20T15:20:42;98942.28;;;19.18;57.68
44839;BME280;30576;42.098;24.876;2022-11-20T15:23:12;98945.34;;;19.26;57.55
44839;BME280;30576;42.098;24.876;2022-11-20T15:25:38;98964.03;;;19.26;57.96
44839;BME280;30576;42.098;24.876;2022-11-20T15:28:04;98974.16;;;19.35;57.74
44839;BME280;30576;42.098;24.876;2022-11-20T15:30:30;98985.75;;;19.36;58.09
44839;BME280;30576;42.098;24.876;2022-11-20T15:32:55;98985.84;;;19.34;58.38
44839;BME280;30576;42.098;24.876;2022-11-20T15:35:20;98993.88;;;19.34;58.71
44839;BME280;30576;42.098;24.876;2022-11-20T15:37:46;99001.59;;;19.39;59.08
44839;BME280;30576;42.098;24.876;2022-11-20T15:40:11;98996.31;;;19.08;59.15
44839;BME280;30576;42.098;24.876;2022-11-20T15:42:36;98978.88;;;18.72;61.01
44839;BME280;30576;42.098;24.876;2022-11-20T15:45:02;98989.50;;;18.12;61.95
44839;BME280;30576;42.098;24.876;2022-11-20T15:47:34;98987.63;;;17.98;62.22
44839;BME280;30576;42.098;24.876;2022-11-20T15:50:00;98983.84;;;18.02;62.74
44839;BME280;30576;42.098;24.876;2022-11-20T15:52:25;98995.00;;;18.08;61.30
44839;BME280;30576;42.098;24.876;2022-11-20T15:54:51;98980.22;;;18.19;60.18
44839;BME280;30576;42.098;24.876;2022-11-20T16:00:18;98969.00;;;18.89;58.14
44839;BME280;30576;42.098;24.876;2022-11-20T16:05:53;98964.34;;;18.62;60.00
44839;BME280;30576;42.098;24.876;2022-11-20T16:08:19;98966.66;;;18.83;58.37
44839;BME280;30576;42.098;24.876;2022-11-20T16:10:44;98961.47;;;18.65;60.17
44839;BME280;30576;42.098;24.876;2022-11-20T16:13:16;98979.19;;;18.52;60.28
44839;BME280;30576;42.098;24.876;2022-11-20T16:16:02;98986.22;;;18.38;60.52
44839;BME280;30576;42.098;24.876;2022-11-20T16:18:30;98995.09;;;18.53;59.61
44839;BME280;30576;42.098;24.876;2022-11-20T16:20:55;99011.28;;;18.66;58.59
44839;BME280;30576;42.098;24.876;2022-11-20T16:23:21;99008.47;;;18.84;58.18
44839;BME280;30576;42.098;24.876;2022-11-20T16:28:49;99002.28;;;18.83;57.47